Time;durP1;ratioP1;P1;durP2;ratioP2;P2;SDS_P1;SDS_P2;PMS_P1;PMS_P2;Temp;Humidity;BMP_temperature;BMP_pressure;BME280_temperature;BME280_humidity;BME280_pressure;Samples;Min_cycle;Max_cycle;Signal;HPM_P1;HPM_P2
2021/12/30 00:01:38;;;;;;;;;;;;;;;19.17;56.72;100672.69;7281003;19;152981;-49
2021/12/30 00:04:05;;;;;;;;;;;;;;;19.18;56.52;100663.16;7281549;19;151953;-50
2021/12/30 00:06:39;;;;;;;;;;;;;;;19.19;56.54;100672.38;7281201;19;152867;-50
2021/12/30 00:09:09;;;;;;;;;;;;;;;19.21;55.96;100684.13;7280555;19;153438;-50
2021/12/30 00:11:36;;;;;;;;;;;;;;;19.20;56.51;100680.50;7288389;19;152729;-49
2021/12/30 00:14:03;;;;;;;;;;;;;;;19.21;56.29;100682.16;7279954;19;152749;-49
2021/12/30 00:16:30;;;;;;;;;;;;;;;19.22;56.55;100677.38;7278589;19;152053;-49
2021/12/30 00:18:57;;;;;;;;;;;;;;;19.20;56.59;100686.09;7281012;19;153195;-50
2021/12/30 00:21:24;;;;;;;;;;;;;;;19.22;56.23;100682.97;7279711;19;153263;-49
2021/12/30 00:23:51;;;;;;;;;;;;;;;19.23;56.44;100679.03;7280443;19;151928;-49
2021/12/30 00:26:18;;;;;;;;;;;;;;;19.22;57.26;100682.97;7280942;19;152014;-50
2021/12/30 00:28:45;;;;;;;;;;;;;;;19.21;56.91;100679.34;7277977;19;153370;-50
2021/12/30 00:31:12;;;;;;;;;;;;;;;19.23;57.20;100684.63;7283764;19;151623;-50
2021/12/30 00:33:39;;;;;;;;;;;;;;;19.24;57.18;100691.91;7286699;19;153775;-50
2021/12/30 00:36:07;;;;;;;;;;;;;;;19.22;57.29;100691.38;7281534;19;152062;-49
2021/12/30 00:38:35;;;;;;;;;;;;;;;19.21;57.13;100690.56;7277408;19;153217;-49
2021/12/30 00:41:02;;;;;;;;;;;;;;;19.21;57.45;100695.31;7279672;19;153822;-49
2021/12/30 00:43:29;;;;;;;;;;;;;;;19.21;58.13;100684.97;7278533;19;152387;-49
2021/12/30 00:45:56;;;;;;;;;;;;;;;19.20;58.57;100688.06;7281477;19;153271;-49
2021/12/30 00:48:23;;;;;;;;;;;;;;;19.20;57.86;100683.28;7281640;19;154096;-49
2021/12/30 00:50:50;;;;;;;;;;;;;;;19.23;58.44;100684.63;7287672;19;152658;-50
2021/12/30 00:53:17;;;;;;;;;;;;;;;19.20;57.91;100680.50;7284932;19;152786;-50
2021/12/30 00:55:44;;;;;;;;;;;;;;;19.20;57.92;100688.91;7291806;19;152385;-49
2021/12/30 00:58:11;;;;;;;;;;;;;;;19.19;58.62;100686.38;7283845;19;153489;-49
2021/12/30 01:00:39;;;;;;;;;;;;;;;19.21;59.00;100701.75;7287453;19;153448;-49
2021/12/30 01:03:07;;;;;;;;;;;;;;;19.19;58.68;100692.81;7287690;19;151610;-50
2021/12/30 01:05:35;;;;;;;;;;;;;;;19.21;59.04;100703.72;7286222;19;153807;-50
2021/12/30 01:08:03;;;;;;;;;;;;;;;19.20;59.06;100688.06;7284221;19;154462;-49
2021/12/30 01:10:30;;;;;;;;;;;;;;;19.19;58.49;100698.41;7285531;19;151892;-50
2021/12/30 01:13:04;;;;;;;;;;;;;;;19.21;59.55;100684.97;7289371;19;153486;-50
2021/12/30 01:15:45;;;;;;;;;;;;;;;19.19;58.96;100692.00;7291187;19;153553;-50
2021/12/30 01:18:26;;;;;;;;;;;;;;;19.18;59.98;100698.72;7286482;19;153494;-49
2021/12/30 01:20:53;;;;;;;;;;;;;;;19.17;59.76;100706.28;7285050;19;153713;-49
2021/12/30 01:23:20;;;;;;;;;;;;;;;19.22;59.43;100716.56;7285474;19;152252;-50
2021/12/30 01:25:47;;;;;;;;;;;;;;;19.20;59.98;100721.66;7285094;19;153640;-50
2021/12/30 01:28:14;;;;;;;;;;;;;;;19.18;59.62;100713.56;7285716;19;153427;-50
2021/12/30 01:30:42;;;;;;;;;;;;;;;19.17;59.77;100744.69;7283381;19;152029;-50
2021/12/30 01:33:09;;;;;;;;;;;;;;;19.17;59.79;100717.50;7283203;19;153144;-50
2021/12/30 01:35:35;;;;;;;;;;;;;;;19.18;59.71;100718.31;7283301;19;152335;-49
2021/12/30 01:38:03;;;;;;;;;;;;;;;19.18;59.15;100716.34;7293070;19;151583;-50
2021/12/30 01:40:30;;;;;;;;;;;;;;;19.16;60.04;100729.84;7284928;19;153398;-50
2021/12/30 01:42:57;;;;;;;;;;;;;;;19.15;60.81;100719.78;7285288;19;152714;-49
2021/12/30 01:45:24;;;;;;;;;;;;;;;19.15;60.19;100744.97;7284567;19;152305;-50
2021/12/30 01:47:54;;;;;;;;;;;;;;;19.14;60.75;100725.66;7282860;19;152658;-50
2021/12/30 01:50:22;;;;;;;;;;;;;;;19.15;60.24;100722.59;7283953;19;152062;-50
2021/12/30 01:52:49;;;;;;;;;;;;;;;19.14;60.30;100729.31;7284815;19;153764;-49
2021/12/30 01:55:17;;;;;;;;;;;;;;;19.15;60.43;100732.94;7282023;19;153497;-49
2021/12/30 01:57:46;;;;;;;;;;;;;;;19.15;59.56;100732.94;7286554;19;152591;-49
2021/12/30 02:00:14;;;;;;;;;;;;;;;19.13;60.26;100730.44;7291353;19;153647;-50
2021/12/30 02:02:41;;;;;;;;;;;;;;;19.14;60.25;100732.09;7283410;19;152064;-50
2021/12/30 02:05:09;;;;;;;;;;;;;;;19.15;60.10;100736.59;7283223;19;153107;-50
2021/12/30 02:07:36;;;;;;;;;;;;;;;19.15;60.52;100736.59;7281529;19;153294;-49
2021/12/30 02:10:04;;;;;;;;;;;;;;;19.15;60.03;100730.16;7281573;19;152765;-49
2021/12/30 02:12:32;;;;;;;;;;;;;;;19.16;59.97;100738.25;7283521;19;151862;-50
2021/12/30 02:14:59;;;;;;;;;;;;;;;19.16;59.91;100743.03;7281243;19;152534;-49
2021/12/30 02:17:26;;;;;;;;;;;;;;;19.17;60.66;100747.50;7282690;19;151954;-49
2021/12/30 02:20:03;;;;;;;;;;;;;;;19.15;61.01;100744.16;7284510;19;152189;-49
2021/12/30 02:22:30;;;;;;;;;;;;;;;19.15;60.46;100747.78;7291934;19;153990;-49
2021/12/30 02:24:59;;;;;;;;;;;;;;;19.15;60.99;100747.78;7284487;19;152698;-50
2021/12/30 02:27:27;;;;;;;;;;;;;;;19.16;60.82;100759.81;7282517;19;153177;-50
2021/12/30 02:29:54;;;;;;;;;;;;;;;19.15;61.07;100764.59;7280222;19;152308;-49
2021/12/30 02:32:21;;;;;;;;;;;;;;;19.15;61.31;100758.16;7285230;19;153139;-50
2021/12/30 02:34:49;;;;;;;;;;;;;;;19.13;61.62;100766.00;7283135;19;152192;-50
2021/12/30 02:37:17;;;;;;;;;;;;;;;19.13;61.49;100755.66;7283232;19;152311;-50
2021/12/30 02:39:49;;;;;;;;;;;;;;;19.12;61.27;100765.22;7282361;19;153493;-50
2021/12/30 02:42:16;;;;;;;;;;;;;;;19.14;61.25;100773.28;7282383;19;154214;-49
2021/12/30 02:44:42;;;;;;;;;;;;;;;19.10;61.10;100759.06;7291249;19;152118;-49
2021/12/30 02:47:11;;;;;;;;;;;;;;;19.09;62.05;100758.22;7280996;19;153829;-50
2021/12/30 02:49:39;;;;;;;;;;;;;;;19.12;61.71;100767.16;7283292;19;152238;-50
2021/12/30 02:52:06;;;;;;;;;;;;;;;19.12;61.63;100773.59;7280488;19;152268;-50
2021/12/30 02:54:33;;;;;;;;;;;;;;;19.09;61.84;100769.44;7282489;19;152260;-49
2021/12/30 02:57:00;;;;;;;;;;;;;;;19.09;61.94;100774.19;7285326;19;151903;-50
2021/12/30 02:59:27;;;;;;;;;;;;;;;19.10;61.76;100771.09;7284807;19;153353;-50
2021/12/30 03:01:55;;;;;;;;;;;;;;;19.09;61.69;100786.22;7283434;19;152845;-49
2021/12/30 03:04:22;;;;;;;;;;;;;;;19.13;61.80;100780.00;7283145;19;151835;-50
2021/12/30 03:06:49;;;;;;;;;;;;;;;19.10;61.60;100784.25;7287492;19;153093;-50
2021/12/30 03:09:16;;;;;;;;;;;;;;;19.11;61.69;100783.13;7283193;19;151846;-49
2021/12/30 03:11:43;;;;;;;;;;;;;;;19.09;62.10;100777.81;7283151;19;153106;-49
2021/12/30 03:14:10;;;;;;;;;;;;;;;19.11;61.97;100780.34;7282274;19;153213;-50
2021/12/30 03:16:37;;;;;;;;;;;;;;;19.08;62.14;100780.91;7281238;19;152219;-50
2021/12/30 03:19:05;;;;;;;;;;;;;;;19.08;62.15;100790.16;7284105;19;153278;-50
2021/12/30 03:21:32;;;;;;;;;;;;;;;19.09;62.28;100793.78;7282619;19;154043;-50
2021/12/30 03:24:00;;;;;;;;;;;;;;;19.08;61.77;100790.16;7282320;19;152033;-49
2021/12/30 03:26:28;;;;;;;;;;;;;;;19.08;62.51;100803.31;7289256;19;152315;-50
2021/12/30 03:28:55;;;;;;;;;;;;;;;19.05;62.57;100799.16;7280838;19;152116;-50
2021/12/30 03:31:22;;;;;;;;;;;;;;;19.06;61.74;100786.00;7280486;19;152685;-50
2021/12/30 03:33:49;;;;;;;;;;;;;;;19.07;62.49;100784.88;7281683;19;152347;-50
2021/12/30 03:36:18;;;;;;;;;;;;;;;19.05;62.38;100773.13;7280625;19;152252;-50
2021/12/30 03:38:47;;;;;;;;;;;;;;;19.01;62.79;100789.72;7282516;19;153672;-50
2021/12/30 03:41:16;;;;;;;;;;;;;;;19.05;62.34;100776.78;7280357;19;153213;-49
2021/12/30 03:43:43;;;;;;;;;;;;;;;19.03;62.70;100773.44;7281427;19;152275;-50
2021/12/30 03:46:10;;;;;;;;;;;;;;;19.03;62.83;100783.81;7284152;19;153216;-50
2021/12/30 03:48:42;;;;;;;;;;;;;;;19.02;62.64;100776.56;7288075;19;154027;-50
2021/12/30 03:51:19;;;;;;;;;;;;;;;19.00;62.45;100779.66;7277799;19;151983;-50
2021/12/30 03:53:49;;;;;;;;;;;;;;;18.99;63.04;100772.38;7280936;19;154146;-49
2021/12/30 03:56:17;;;;;;;;;;;;;;;19.00;63.09;100765.63;7280192;19;152334;-50
2021/12/30 03:58:45;;;;;;;;;;;;;;;18.99;63.04;100786.38;7280412;19;152823;-50
2021/12/30 04:01:16;;;;;;;;;;;;;;;18.99;62.96;100794.78;7277797;19;153036;-50
2021/12/30 04:03:43;;;;;;;;;;;;;;;18.97;62.98;100771.03;7281341;19;152130;-50
2021/12/30 04:06:10;;;;;;;;;;;;;;;18.97;62.70;100773.81;7280880;19;152604;-49
2021/12/30 04:08:38;;;;;;;;;;;;;;;18.95;62.96;100774.13;7280997;19;153426;-50
2021/12/30 04:11:04;;;;;;;;;;;;;;;18.97;62.51;100799.03;7287223;19;152126;-50
2021/12/30 04:13:33;;;;;;;;;;;;;;;18.96;62.91;100778.59;7278156;19;153948;-50
2021/12/30 04:16:00;;;;;;;;;;;;;;;18.94;62.91;100786.44;7281862;19;151699;-49
2021/12/30 04:18:27;;;;;;;;;;;;;;;18.94;62.94;100786.44;7278354;19;152799;-49
2021/12/30 04:20:54;;;;;;;;;;;;;;;18.94;63.00;100785.63;7278828;19;153741;-50
2021/12/30 04:23:21;;;;;;;;;;;;;;;18.92;62.90;100794.31;7285364;19;151552;-49
2021/12/30 04:25:48;;;;;;;;;;;;;;;18.93;62.56;100790.41;7286452;19;152717;-49
2021/12/30 04:28:16;;;;;;;;;;;;;;;18.93;62.71;100797.97;7284374;19;152575;-49
2021/12/30 04:30:43;;;;;;;;;;;;;;;18.92;63.32;100790.69;7287168;19;152554;-49
2021/12/30 04:33:09;;;;;;;;;;;;;;;18.93;63.28;100811.97;7293774;19;153281;-50
2021/12/30 04:35:36;;;;;;;;;;;;;;;18.94;63.00;100797.63;7288152;19;151908;-50
2021/12/30 04:38:03;;;;;;;;;;;;;;;18.93;63.10;100803.56;7286631;19;152661;-50
2021/12/30 04:40:30;;;;;;;;;;;;;;;18.92;62.80;100799.91;7287182;19;153210;-49
2021/12/30 04:42:57;;;;;;;;;;;;;;;18.94;62.99;100802.44;7287745;19;151900;-50
2021/12/30 04:45:26;;;;;;;;;;;;;;;18.92;63.05;100794.31;7286689;19;153404;-49
2021/12/30 04:47:53;;;;;;;;;;;;;;;18.91;63.30;100797.41;7286542;19;154093;-50
2021/12/30 04:50:20;;;;;;;;;;;;;;;18.91;62.79;100786.22;7286800;19;152065;-49
2021/12/30 04:52:47;;;;;;;;;;;;;;;18.89;63.32;100785.69;7285237;19;153480;-50
2021/12/30 04:55:15;;;;;;;;;;;;;;;18.90;62.99;100792.94;7291851;19;154003;-50
2021/12/30 04:57:42;;;;;;;;;;;;;;;18.90;62.83;100799.38;7284500;19;152219;-49
2021/12/30 05:00:10;;;;;;;;;;;;;;;18.89;62.99;100786.53;7285354;19;152767;-50
2021/12/30 05:03:02;;;;;;;;;;;;;;;18.90;63.07;100796.56;7285663;19;151907;-50
2021/12/30 05:05:24;;;;;;;;;;;;;;;18.89;63.49;100817.34;7285561;19;152890;-50
2021/12/30 05:07:51;;;;;;;;;;;;;;;18.88;63.38;100809.22;7282088;19;153272;-49
2021/12/30 05:10:18;;;;;;;;;;;;;;;18.89;63.24;100836.09;7284841;19;151945;-49
2021/12/30 05:12:45;;;;;;;;;;;;;;;18.89;63.09;100817.34;7284977;19;152946;-50
2021/12/30 05:15:13;;;;;;;;;;;;;;;18.89;63.58;100825.72;7283758;19;152674;-50
2021/12/30 05:17:41;;;;;;;;;;;;;;;18.87;63.15;100827.97;7294461;19;151635;-49
2021/12/30 05:20:08;;;;;;;;;;;;;;;18.87;63.56;100841.16;7284747;19;152587;-49
2021/12/30 05:22:35;;;;;;;;;;;;;;;18.88;63.37;100837.22;7286585;19;152827;-50
2021/12/30 05:25:03;;;;;;;;;;;;;;;18.85;63.28;100829.44;7285785;19;153626;-50
2021/12/30 05:27:29;;;;;;;;;;;;;;;18.84;63.68;100842.59;7283778;19;153372;-50
2021/12/30 05:29:56;;;;;;;;;;;;;;;18.83;63.58;100862.47;7286164;19;151959;-49
2021/12/30 05:32:23;;;;;;;;;;;;;;;18.82;63.31;100836.44;7285120;19;152744;-50
2021/12/30 05:34:50;;;;;;;;;;;;;;;18.88;63.35;100838.06;7283390;19;153899;-49
2021/12/30 05:37:17;;;;;;;;;;;;;;;18.93;62.69;100829.59;7293473;19;151769;-50
2021/12/30 05:39:44;;;;;;;;;;;;;;;18.99;63.18;100819.97;7284694;19;153754;-50
2021/12/30 05:42:11;;;;;;;;;;;;;;;19.04;63.43;100811.50;7286081;19;151856;-50
2021/12/30 05:44:37;;;;;;;;;;;;;;;19.09;63.81;100800.22;7285155;19;152582;-50
2021/12/30 05:47:04;;;;;;;;;;;;;;;19.13;63.71;100808.84;7284952;19;153559;-49
2021/12/30 05:49:31;;;;;;;;;;;;;;;19.21;63.45;100804.56;7284095;19;152294;-49
2021/12/30 05:51:58;;;;;;;;;;;;;;;19.26;63.80;100798.88;7283462;19;152816;-50
2021/12/30 05:54:25;;;;;;;;;;;;;;;19.32;63.69;100801.28;7281895;19;154984;-50
2021/12/30 05:56:52;;;;;;;;;;;;;;;19.38;63.62;100810.44;7286436;19;152438;-50
2021/12/30 05:59:19;;;;;;;;;;;;;;;19.45;63.18;100814.56;7292031;19;152592;-50
2021/12/30 06:01:47;;;;;;;;;;;;;;;19.51;63.19;100826.53;7285902;19;151915;-50
2021/12/30 06:04:14;;;;;;;;;;;;;;;19.60;62.69;100840.66;7283446;19;152772;-50
2021/12/30 06:06:41;;;;;;;;;;;;;;;19.66;62.57;100839.47;7282486;19;153374;-49
2021/12/30 06:09:08;;;;;;;;;;;;;;;19.72;62.20;100864.28;7284084;19;152116;-50
2021/12/30 06:11:35;;;;;;;;;;;;;;;19.80;62.20;100882.41;7283234;19;153687;-49
2021/12/30 06:14:02;;;;;;;;;;;;;;;19.84;61.48;100859.06;7282377;19;152630;-50
2021/12/30 06:16:29;;;;;;;;;;;;;;;19.89;61.23;100867.38;7284810;19;152170;-50
2021/12/30 06:18:57;;;;;;;;;;;;;;;19.96;60.99;100856.59;7285228;19;153530;-50
2021/12/30 06:21:24;;;;;;;;;;;;;;;20.03;60.73;100849.78;7289581;19;153479;-50
2021/12/30 06:23:51;;;;;;;;;;;;;;;20.07;60.57;100870.44;7285031;19;153567;-50
2021/12/30 06:26:18;;;;;;;;;;;;;;;20.12;60.21;100867.56;7280532;19;153317;-50
2021/12/30 06:28:45;;;;;;;;;;;;;;;20.19;59.94;100879.19;7282457;19;152382;-49
2021/12/30 06:31:12;;;;;;;;;;;;;;;20.23;59.84;100869.84;7284634;19;152679;-50
2021/12/30 06:33:39;;;;;;;;;;;;;;;20.28;59.37;100883.78;7283125;19;154064;-50
2021/12/30 06:36:06;;;;;;;;;;;;;;;20.33;59.66;100864.09;7281733;19;151635;-50
2021/12/30 06:38:33;;;;;;;;;;;;;;;20.39;59.04;100884.50;7284041;19;153101;-50
2021/12/30 06:41:00;;;;;;;;;;;;;;;20.43;59.25;100907.97;7283830;19;153209;-50
2021/12/30 06:43:27;;;;;;;;;;;;;;;20.50;59.09;100885.09;7289291;19;151953;-50
2021/12/30 06:45:54;;;;;;;;;;;;;;;20.54;58.62;100884.19;7277469;19;153271;-49
2021/12/30 06:48:21;;;;;;;;;;;;;;;20.59;58.73;100889.69;7283566;19;151941;-50
2021/12/30 06:50:52;;;;;;;;;;;;;;;20.64;58.47;100889.59;7283283;19;152434;-49
2021/12/30 06:53:20;;;;;;;;;;;;;;;20.69;58.01;100872.66;7282676;19;153804;-50
2021/12/30 06:55:48;;;;;;;;;;;;;;;20.74;57.75;100886.59;7284611;19;152016;-50
2021/12/30 06:58:15;;;;;;;;;;;;;;;20.79;57.74;100860.38;7281743;19;153025;-50
2021/12/30 07:00:42;;;;;;;;;;;;;;;20.83;57.88;100873.50;7281109;19;154134;-50
2021/12/30 07:03:09;;;;;;;;;;;;;;;20.87;57.29;100868.06;7282188;19;152093;-50
2021/12/30 07:05:36;;;;;;;;;;;;;;;20.92;57.27;100884.81;7290321;19;152954;-50
2021/12/30 07:08:03;;;;;;;;;;;;;;;20.96;57.17;100888.66;7278604;19;152269;-50
2021/12/30 07:10:30;;;;;;;;;;;;;;;20.99;57.35;100890.84;7283132;19;153458;-50
2021/12/30 07:12:57;;;;;;;;;;;;;;;21.06;56.94;100898.88;7282461;19;153839;-49
2021/12/30 07:15:24;;;;;;;;;;;;;;;21.08;57.01;100904.97;7281257;19;152410;-50
2021/12/30 07:17:54;;;;;;;;;;;;;;;21.11;56.80;100896.78;7283930;19;152821;-50
2021/12/30 07:20:21;;;;;;;;;;;;;;;21.16;56.46;100901.50;7282233;19;153937;-50
2021/12/30 07:22:48;;;;;;;;;;;;;;;21.19;56.20;100915.75;7281607;19;151966;-50
2021/12/30 07:25:17;;;;;;;;;;;;;;;21.21;56.00;100902.19;7283376;19;153986;-50
2021/12/30 07:27:46;;;;;;;;;;;;;;;21.24;56.34;100889.50;7289146;19;151954;-50
2021/12/30 07:30:13;;;;;;;;;;;;;;;21.28;56.08;100908.25;7280767;19;153831;-50
2021/12/30 07:32:40;;;;;;;;;;;;;;;21.30;55.73;100888.25;7278528;19;152609;-49
2021/12/30 07:35:07;;;;;;;;;;;;;;;21.33;55.65;100898.88;7285085;19;152456;-50
2021/12/30 07:37:34;;;;;;;;;;;;;;;21.34;55.74;100899.69;7283419;19;152157;-50
2021/12/30 07:40:01;;;;;;;;;;;;;;;21.36;55.51;100911.44;7278794;19;152802;-50
2021/12/30 07:42:28;;;;;;;;;;;;;;;21.35;55.47;100913.41;7281763;19;152634;-50
2021/12/30 07:44:55;;;;;;;;;;;;;;;21.37;55.21;100927.16;7282082;19;153415;-50
2021/12/30 07:47:22;;;;;;;;;;;;;;;21.37;55.33;100925.19;7287619;19;152755;-50
2021/12/30 07:49:49;;;;;;;;;;;;;;;21.39;55.41;100922.06;7281345;19;152467;-50
2021/12/30 07:52:16;;;;;;;;;;;;;;;21.38;54.88;100946.53;7279614;19;153212;-49
2021/12/30 07:54:44;;;;;;;;;;;;;;;21.39;55.26;100934.16;7282540;19;152124;-50
2021/12/30 07:57:12;;;;;;;;;;;;;;;21.37;55.03;100952.47;7281773;19;153975;-50
2021/12/30 07:59:38;;;;;;;;;;;;;;;21.37;55.23;100953.28;7281655;19;153285;-49
2021/12/30 08:02:05;;;;;;;;;;;;;;;21.37;55.04;100950.47;7280704;19;152591;-50
2021/12/30 08:04:32;;;;;;;;;;;;;;;21.36;55.02;100971.28;7282942;19;153416;-50
2021/12/30 08:06:59;;;;;;;;;;;;;;;21.36;54.70;100968.50;7278949;19;152842;-50
2021/12/30 08:09:26;;;;;;;;;;;;;;;21.36;55.08;100964.84;7290284;19;152034;-50
2021/12/30 08:11:53;;;;;;;;;;;;;;;21.34;54.85;100969.97;7281130;19;153465;-50
2021/12/30 08:14:20;;;;;;;;;;;;;;;21.33;55.18;100971.94;7280446;19;152960;-50
2021/12/30 08:16:47;;;;;;;;;;;;;;;21.31;54.76;100988.25;7281663;19;152628;-50
2021/12/30 08:19:14;;;;;;;;;;;;;;;21.31;54.94;100979.84;7280339;19;153367;-50
2021/12/30 08:21:42;;;;;;;;;;;;;;;21.30;54.68;100981.00;7280961;19;152341;-50
2021/12/30 08:24:09;;;;;;;;;;;;;;;21.29;54.60;100970.91;7280599;19;152374;-50
2021/12/30 08:26:37;;;;;;;;;;;;;;;21.27;55.13;100971.19;7278368;19;154314;-50
2021/12/30 08:29:05;;;;;;;;;;;;;;;21.26;54.64;100971.50;7281288;19;152350;-50
2021/12/30 08:31:33;;;;;;;;;;;;;;;21.23;55.01;100970.16;7286880;19;152929;-50
2021/12/30 08:34:01;;;;;;;;;;;;;;;21.22;55.04;100985.34;7280089;19;152707;-50
2021/12/30 08:36:28;;;;;;;;;;;;;;;21.21;55.10;100988.50;7283744;19;152136;-50
2021/12/30 08:38:55;;;;;;;;;;;;;;;21.20;55.00;100987.66;7278767;19;153132;-50
2021/12/30 08:41:22;;;;;;;;;;;;;;;21.19;55.12;100982.34;7278674;19;152024;-50
2021/12/30 08:43:48;;;;;;;;;;;;;;;21.15;54.84;100990.56;7280635;19;152618;-50
2021/12/30 08:46:15;;;;;;;;;;;;;;;21.14;54.88;100983.28;7279503;19;153786;-50
2021/12/30 08:48:43;;;;;;;;;;;;;;;21.14;55.05;100988.06;7279791;19;152451;-50
2021/12/30 08:51:10;;;;;;;;;;;;;;;21.12;54.86;100993.94;7280404;19;152176;-49
2021/12/30 08:53:40;;;;;;;;;;;;;;;21.10;55.11;101001.03;7286459;19;154490;-50
2021/12/30 08:56:12;;;;;;;;;;;;;;;21.08;55.25;101008.94;7278540;19;152738;-50
2021/12/30 08:58:39;;;;;;;;;;;;;;;21.07;55.14;101008.13;7276892;19;153400;-50
2021/12/30 09:01:06;;;;;;;;;;;;;;;21.05;54.85;101009.56;7277156;19;152169;-49
2021/12/30 09:03:33;;;;;;;;;;;;;;;21.05;54.96;101012.38;7279883;19;152894;-50
2021/12/30 09:06:00;;;;;;;;;;;;;;;21.02;55.41;100994.19;7278921;19;153481;-50
2021/12/30 09:08:27;;;;;;;;;;;;;;;21.01;55.05;101000.09;7280566;19;152291;-50
2021/12/30 09:10:54;;;;;;;;;;;;;;;21.00;54.98;101006.84;7286474;19;153061;-49
2021/12/30 09:13:21;;;;;;;;;;;;;;;20.98;55.14;101015.59;7282181;19;152230;-50
2021/12/30 09:15:48;;;;;;;;;;;;;;;20.97;55.41;101013.09;7293213;19;151790;-50
2021/12/30 09:18:15;;;;;;;;;;;;;;;20.95;55.62;101004.97;7285284;19;154243;-50
2021/12/30 09:20:43;;;;;;;;;;;;;;;20.94;55.58;101008.09;7286024;19;151819;-49
2021/12/30 09:23:12;;;;;;;;;;;;;;;20.92;55.58;101005.59;7284613;19;153506;-50
2021/12/30 09:25:39;;;;;;;;;;;;;;;20.90;55.39;101018.28;7283129;19;154125;-50
2021/12/30 09:28:07;;;;;;;;;;;;;;;20.90;55.62;101004.22;7282167;19;152250;-50
2021/12/30 09:30:34;;;;;;;;;;;;;;;20.86;55.50;101013.28;7280128;19;152828;-50
2021/12/30 09:33:02;;;;;;;;;;;;;;;20.86;55.39;101010.47;7283575;19;153475;-50
2021/12/30 09:35:30;;;;;;;;;;;;;;;20.86;55.70;101023.69;7292276;19;151530;-50
2021/12/30 09:37:57;;;;;;;;;;;;;;;20.83;55.95;101035.53;7285168;19;153914;-50
2021/12/30 09:40:24;;;;;;;;;;;;;;;20.82;55.79;101031.88;7287681;19;151925;-50
2021/12/30 09:42:54;;;;;;;;;;;;;;;20.80;55.70;101028.53;7284477;19;152562;-49
2021/12/30 09:45:26;;;;;;;;;;;;;;;20.79;56.01;101026.06;7284230;19;153286;-50
2021/12/30 09:47:55;;;;;;;;;;;;;;;20.77;55.79;101031.97;7284484;19;152459;-50
2021/12/30 09:50:25;;;;;;;;;;;;;;;20.75;55.82;101033.44;7286165;19;153100;-50
2021/12/30 09:52:53;;;;;;;;;;;;;;;20.75;56.04;101025.03;7281244;19;153441;-49
2021/12/30 09:55:20;;;;;;;;;;;;;;;20.72;55.96;101017.19;7283505;19;152223;-50
2021/12/30 09:57:47;;;;;;;;;;;;;;;20.66;56.43;101038.94;7291038;19;153203;-50
2021/12/30 10:00:15;;;;;;;;;;;;;;;20.70;56.08;101039.16;7283326;19;154131;-50
2021/12/30 10:02:43;;;;;;;;;;;;;;;20.70;56.32;101036.34;7283994;19;152843;-50
2021/12/30 10:05:11;;;;;;;;;;;;;;;20.71;56.38;101049.25;7284346;19;153467;-49
2021/12/30 10:07:39;;;;;;;;;;;;;;;20.74;56.49;101049.44;7282241;19;152219;-50
2021/12/30 10:10:09;;;;;;;;;;;;;;;20.75;56.88;101047.47;7284805;19;152494;-50
2021/12/30 10:12:39;;;;;;;;;;;;;;;20.75;57.02;101039.91;7282010;19;153265;-50
2021/12/30 10:15:07;;;;;;;;;;;;;;;20.79;56.47;101049.38;7285357;19;151965;-50
2021/12/30 10:17:35;;;;;;;;;;;;;;;20.83;56.75;101055.19;7284142;19;153066;-50
2021/12/30 10:20:05;;;;;;;;;;;;;;;20.85;56.20;101064.13;7288944;19;154255;-50
2021/12/30 10:22:35;;;;;;;;;;;;;;;20.88;56.57;101060.72;7284211;19;154203;-49
2021/12/30 10:25:02;;;;;;;;;;;;;;;20.90;56.17;101068.81;7282914;19;153820;-50
2021/12/30 10:27:34;;;;;;;;;;;;;;;20.90;56.21;101066.00;7284428;19;152408;-49
2021/12/30 10:30:03;;;;;;;;;;;;;;;20.92;55.97;101060.94;7284462;19;153143;-50
2021/12/30 10:32:30;;;;;;;;;;;;;;;20.94;56.25;101064.28;7279719;19;154364;-49
2021/12/30 10:34:59;;;;;;;;;;;;;;;20.94;56.22;101058.66;7282680;19;151918;-49
2021/12/30 10:37:26;;;;;;;;;;;;;;;20.96;55.93;101079.66;7284679;19;152827;-50
2021/12/30 10:39:53;;;;;;;;;;;;;;;20.96;55.85;101076.03;7282132;19;154491;-50
2021/12/30 10:42:21;;;;;;;;;;;;;;;20.97;55.88;101077.69;7292001;19;151913;-50
2021/12/30 10:44:56;;;;;;;;;;;;;;;20.97;56.12;101080.50;7282283;19;153443;-50
2021/12/30 10:47:26;;;;;;;;;;;;;;;20.98;55.67;101076.56;7281091;19;151938;-50
2021/12/30 10:49:57;;;;;;;;;;;;;;;20.98;55.76;101074.59;7283856;19;153334;-50
2021/12/30 10:52:24;;;;;;;;;;;;;;;20.98;55.87;101080.22;7282207;19;154008;-50
2021/12/30 10:54:52;;;;;;;;;;;;;;;20.98;55.75;101080.22;7284049;19;152001;-50
2021/12/30 10:57:19;;;;;;;;;;;;;;;20.97;55.83;101086.97;7284904;19;152776;-50
2021/12/30 10:59:48;;;;;;;;;;;;;;;20.97;56.07;101086.97;7280241;19;153106;-49
2021/12/30 11:02:17;;;;;;;;;;;;;;;20.96;55.68;101082.47;7281114;19;152545;-50
2021/12/30 11:04:45;;;;;;;;;;;;;;;20.95;55.92;101088.41;7288627;19;152634;-50
2021/12/30 11:07:16;;;;;;;;;;;;;;;20.95;56.34;101099.63;7279781;19;152154;-50
2021/12/30 11:09:48;;;;;;;;;;;;;;;20.94;56.04;101092.38;7280809;19;153819;-50
2021/12/30 11:12:16;;;;;;;;;;;;;;;20.94;55.78;101086.75;7282291;19;154125;-50
2021/12/30 11:14:43;;;;;;;;;;;;;;;20.92;56.37;101089.84;7283891;19;151655;-50
2021/12/30 11:17:15;;;;;;;;;;;;;;;20.91;56.21;101092.97;7282597;19;152845;-50
2021/12/30 11:19:49;;;;;;;;;;;;;;;20.89;56.15;101078.41;7280842;19;154325;-50
2021/12/30 11:22:17;;;;;;;;;;;;;;;20.87;56.23;101095.56;7281233;19;152284;-50
2021/12/30 11:24:44;;;;;;;;;;;;;;;20.86;56.11;101091.91;7279555;19;152301;-50
2021/12/30 11:27:12;;;;;;;;;;;;;;;20.86;56.11;101094.72;7287740;19;153189;-50
2021/12/30 11:29:43;;;;;;;;;;;;;;;20.84;56.18;101085.78;7280555;19;152633;-50
2021/12/30 11:32:11;;;;;;;;;;;;;;;20.84;56.29;101087.75;7277919;19;155050;-50
2021/12/30 11:34:38;;;;;;;;;;;;;;;20.83;56.34;101094.50;7280461;19;152240;-50
2021/12/30 11:37:05;;;;;;;;;;;;;;;20.81;56.73;101085.53;7281616;19;152246;-50
2021/12/30 11:39:32;;;;;;;;;;;;;;;20.81;56.75;101086.38;7281765;19;153411;-50
2021/12/30 11:42:05;;;;;;;;;;;;;;;20.80;56.79;101083.91;7279744;19;152499;-51
2021/12/30 11:44:34;;;;;;;;;;;;;;;20.81;56.21;101097.63;7279017;19;152960;-49
2021/12/30 11:47:01;;;;;;;;;;;;;;;20.79;56.42;101093.47;7287305;19;153543;-50
2021/12/30 11:49:31;;;;;;;;;;;;;;;20.79;56.76;101087.84;7282442;19;153639;-50
2021/12/30 11:51:59;;;;;;;;;;;;;;;20.78;56.73;101087.00;7279338;19;153607;-50
2021/12/30 11:54:29;;;;;;;;;;;;;;;20.77;57.07;101084.50;7279008;19;152062;-50
2021/12/30 11:56:58;;;;;;;;;;;;;;;20.76;56.92;101092.09;7281815;19;154732;-51
2021/12/30 11:59:28;;;;;;;;;;;;;;;20.75;57.05;101089.59;7278978;19;153417;-50
2021/12/30 12:01:55;;;;;;;;;;;;;;;20.72;57.27;101091.03;7283695;19;151886;-50
2021/12/30 12:04:26;;;;;;;;;;;;;;;20.71;57.23;101100.63;7285789;19;154737;-50
2021/12/30 12:06:59;;;;;;;;;;;;;;;20.70;57.31;101104.56;7276994;19;152623;-51
2021/12/30 12:09:34;;;;;;;;;;;;;;;20.69;57.15;101102.88;7289383;19;151936;-50
2021/12/30 12:12:03;;;;;;;;;;;;;;;20.67;57.49;101099.53;7278080;19;153226;-50
2021/12/30 12:14:39;;;;;;;;;;;;;;;20.65;57.33;101099.03;7275800;19;151748;-49
2021/12/30 12:17:09;;;;;;;;;;;;;;;20.65;56.97;101092.56;7278489;19;155382;-49
2021/12/30 12:19:38;;;;;;;;;;;;;;;20.67;56.98;101098.72;7279730;19;154278;-50
2021/12/30 12:22:07;;;;;;;;;;;;;;;20.66;57.29;101094.25;7278453;19;152322;-50
2021/12/30 12:24:36;;;;;;;;;;;;;;;20.69;57.39;101090.81;7281849;19;153166;-50
2021/12/30 12:27:05;;;;;;;;;;;;;;;20.64;57.36;101088.94;7279513;19;153947;-49
2021/12/30 12:29:37;;;;;;;;;;;;;;;20.63;57.08;101080.81;7282069;19;152567;-50
2021/12/30 12:32:10;;;;;;;;;;;;;;;20.62;57.67;101077.19;7285550;19;153576;-50